createdAt,value
2017-03-06T00:00:13.399Z,0
2017-03-06T00:01:13.417Z,0
2017-03-06T00:02:13.431Z,0
2017-03-06T00:03:13.482Z,0
2017-03-06T00:04:13.105Z,0
2017-03-06T00:05:13.498Z,0
2017-03-06T00:06:28.038Z,0
2017-03-06T00:07:28.066Z,0
2017-03-06T00:08:28.081Z,0
2017-03-06T00:09:13.580Z,0
2017-03-06T00:10:13.635Z,0
2017-03-06T00:11:13.621Z,0
2017-03-06T00:12:13.651Z,0
2017-03-06T00:13:13.647Z,0
2017-03-06T00:14:28.196Z,0
2017-03-06T00:15:13.737Z,0
2017-03-06T00:16:13.707Z,0
2017-03-06T00:17:13.762Z,0
2017-03-06T00:18:13.744Z,0
2017-03-06T00:19:28.293Z,0
2017-03-06T00:20:28.326Z,0
2017-03-06T00:21:28.339Z,0
2017-03-06T00:22:13.832Z,0
2017-03-06T00:24:28.390Z,0
2017-03-06T00:25:13.893Z,0
2017-03-06T00:26:13.922Z,0
2017-03-06T00:27:28.458Z,0
2017-03-06T00:28:13.943Z,0
2017-03-06T00:29:28.500Z,0
2017-03-06T00:30:13.591Z,0
2017-03-06T00:31:13.998Z,0
2017-03-06T00:32:14.032Z,0
2017-03-06T00:34:14.111Z,0
2017-03-06T00:35:14.083Z,0
2017-03-06T00:36:28.634Z,0
2017-03-06T00:37:28.642Z,0
2017-03-06T00:38:28.655Z,0
2017-03-06T00:39:14.164Z,0
2017-03-06T00:40:14.164Z,0
2017-03-06T00:41:14.199Z,0
2017-03-06T00:42:14.210Z,0
2017-03-06T00:43:14.223Z,0
2017-03-06T00:44:14.267Z,0
2017-03-06T00:45:14.262Z,0
2017-03-06T00:46:14.279Z,0
2017-03-06T00:47:28.824Z,0
2017-03-06T00:48:13.934Z,0
2017-03-06T00:49:14.359Z,0
2017-03-06T00:50:14.392Z,0
2017-03-06T00:51:14.416Z,0
2017-03-06T00:53:14.415Z,0
2017-03-06T00:54:14.440Z,0
2017-03-06T00:55:14.448Z,0
2017-03-06T00:56:14.475Z,0
2017-03-06T00:57:29.027Z,0
2017-03-06T00:58:14.510Z,0
2017-03-06T00:59:14.571Z,0
2017-03-06T01:00:14.185Z,0
2017-03-06T01:01:29.096Z,0
2017-03-06T01:02:14.597Z,0
2017-03-06T01:03:14.605Z,0
2017-03-06T01:04:14.624Z,0
2017-03-06T01:05:14.670Z,0
2017-03-06T01:06:29.190Z,0
2017-03-06T01:07:14.676Z,0
2017-03-06T01:08:14.710Z,0
2017-03-06T01:09:14.721Z,0
2017-03-06T01:10:14.745Z,0
2017-03-06T01:11:14.754Z,0
2017-03-06T01:12:14.778Z,0
2017-03-06T01:13:14.800Z,0
2017-03-06T01:14:14.439Z,0
2017-03-06T01:15:14.843Z,0
2017-03-06T01:16:14.848Z,0
2017-03-06T01:17:29.396Z,0
2017-03-06T01:18:14.886Z,0
2017-03-06T01:19:14.900Z,0
2017-03-06T01:20:29.472Z,0
2017-03-06T01:21:15.392Z,0
2017-03-06T01:22:14.962Z,0
2017-03-06T01:23:15.009Z,0
2017-03-06T01:24:15.014Z,0
2017-03-06T01:26:15.033Z,0
2017-03-06T01:27:15.057Z,0
2017-03-06T01:28:29.600Z,0
2017-03-06T01:29:15.109Z,0
2017-03-06T01:30:15.107Z,0
2017-03-06T01:32:29.287Z,0
2017-03-06T01:33:29.693Z,0
2017-03-06T01:34:15.188Z,0
2017-03-06T01:35:29.736Z,0
2017-03-06T01:36:15.237Z,0
2017-03-06T01:37:15.237Z,0
2017-03-06T01:38:15.275Z,0
2017-03-06T01:39:29.818Z,0
2017-03-06T01:40:15.302Z,0
2017-03-06T01:41:15.329Z,0
2017-03-06T01:42:15.351Z,0
2017-03-06T01:44:29.897Z,0
2017-03-06T01:45:15.383Z,0
2017-03-06T01:46:15.414Z,0
2017-03-06T01:47:15.431Z,0
2017-03-06T01:48:15.785Z,0
2017-03-06T01:49:29.995Z,0
2017-03-06T01:50:30.013Z,0
2017-03-06T01:51:15.508Z,0
2017-03-06T01:52:15.538Z,0
2017-03-06T01:54:15.554Z,0
2017-03-06T01:55:15.578Z,0
2017-03-06T01:56:15.587Z,0
2017-03-06T01:57:15.239Z,0
2017-03-06T01:58:15.624Z,0
2017-03-06T01:59:15.654Z,0
2017-03-06T02:00:15.664Z,0
2017-03-06T02:01:15.681Z,0
2017-03-06T02:02:15.704Z,0
2017-03-06T02:03:15.724Z,0
2017-03-06T02:04:30.266Z,0
2017-03-06T02:05:15.763Z,0
2017-03-06T02:06:15.775Z,0
2017-03-06T02:07:15.792Z,0
2017-03-06T02:08:15.824Z,0
2017-03-06T02:09:30.372Z,0
2017-03-06T02:10:15.844Z,0
2017-03-06T02:11:15.865Z,0
2017-03-06T02:12:15.883Z,0
2017-03-06T02:13:15.908Z,0
2017-03-06T02:14:15.926Z,0
2017-03-06T02:15:15.956Z,0
2017-03-06T02:16:15.962Z,0
2017-03-06T02:17:15.978Z,0
2017-03-06T02:18:15.997Z,0
2017-03-06T02:19:16.038Z,0
2017-03-06T02:20:16.029Z,0
2017-03-06T02:21:16.076Z,0
2017-03-06T02:22:16.082Z,0
2017-03-06T02:23:16.085Z,0
2017-03-06T02:24:30.247Z,0
2017-03-06T02:25:30.651Z,0
2017-03-06T02:26:30.673Z,0
2017-03-06T02:27:16.191Z,0
2017-03-06T02:28:16.175Z,0
2017-03-06T02:29:16.202Z,0
2017-03-06T02:30:16.219Z,0
2017-03-06T02:31:16.235Z,0
2017-03-06T02:32:16.265Z,0
2017-03-06T02:33:16.266Z,0
2017-03-06T02:34:16.291Z,0
2017-03-06T02:35:16.336Z,0
2017-03-06T02:37:16.338Z,0
2017-03-06T02:38:16.360Z,0
2017-03-06T02:39:16.376Z,0
2017-03-06T02:40:30.928Z,0
2017-03-06T02:41:30.943Z,0
2017-03-06T02:42:30.971Z,0
2017-03-06T02:43:16.475Z,0
2017-03-06T02:44:16.465Z,0
2017-03-06T02:45:16.486Z,0
2017-03-06T02:46:16.503Z,0
2017-03-06T02:47:16.550Z,0
2017-03-06T02:48:16.899Z,0
2017-03-06T02:49:16.566Z,0
2017-03-06T02:50:16.577Z,0
2017-03-06T02:51:16.593Z,0
2017-03-06T02:52:30.757Z,0
2017-03-06T02:53:16.636Z,0
2017-03-06T02:54:16.662Z,0
2017-03-06T02:56:16.698Z,0
2017-03-06T02:57:16.701Z,0
2017-03-06T02:58:16.749Z,0
2017-03-06T02:59:16.736Z,0
2017-03-06T03:00:16.762Z,0
2017-03-06T03:01:16.798Z,0
2017-03-06T03:02:31.322Z,0
2017-03-06T03:03:16.827Z,0
2017-03-06T03:04:31.358Z,0
2017-03-06T03:05:16.862Z,0
2017-03-06T03:06:31.007Z,0
2017-03-06T03:07:16.883Z,0
2017-03-06T03:08:31.454Z,0
2017-03-06T03:09:16.540Z,0
2017-03-06T03:10:16.557Z,0
2017-03-06T03:11:16.986Z,0
2017-03-06T03:12:16.985Z,0
2017-03-06T03:13:16.996Z,0
2017-03-06T03:14:17.021Z,0
2017-03-06T03:15:17.027Z,0
2017-03-06T03:16:17.070Z,0
2017-03-06T03:17:17.090Z,0
2017-03-06T03:18:17.111Z,0
2017-03-06T03:19:17.131Z,0
2017-03-06T03:20:17.145Z,0
2017-03-06T03:21:17.172Z,0
2017-03-06T03:22:17.154Z,0
2017-03-06T03:23:17.173Z,0
2017-03-06T03:24:31.742Z,0
2017-03-06T03:25:17.212Z,0
2017-03-06T03:26:17.226Z,0
2017-03-06T03:27:17.261Z,0
2017-03-06T03:28:17.270Z,0
2017-03-06T03:29:31.845Z,0
2017-03-06T03:30:31.850Z,0
2017-03-06T03:31:17.312Z,0
2017-03-06T03:33:17.365Z,0
2017-03-06T03:34:17.380Z,0
2017-03-06T03:36:17.432Z,0
2017-03-06T03:37:17.421Z,0
2017-03-06T03:38:17.441Z,0
2017-03-06T03:39:31.992Z,0
2017-03-06T03:40:17.479Z,0
2017-03-06T03:41:32.047Z,0
2017-03-06T03:42:17.512Z,0
2017-03-06T03:43:17.175Z,0
2017-03-06T03:44:17.543Z,0
2017-03-06T03:45:17.763Z,0
2017-03-06T03:46:32.107Z,0
2017-03-06T03:47:32.132Z,0
2017-03-06T03:48:17.620Z,0
2017-03-06T03:49:17.637Z,0
2017-03-06T03:50:17.652Z,0
2017-03-06T03:51:17.698Z,0
2017-03-06T03:52:17.698Z,0
2017-03-06T03:53:17.716Z,0
2017-03-06T03:54:17.777Z,0
2017-03-06T03:55:17.743Z,0
2017-03-06T03:56:17.763Z,0
2017-03-06T03:57:17.777Z,0
2017-03-06T03:58:17.822Z,0
2017-03-06T03:59:17.813Z,0
2017-03-06T04:00:17.844Z,0
2017-03-06T04:02:17.868Z,0
2017-03-06T04:03:17.915Z,0
2017-03-06T04:04:17.902Z,0
2017-03-06T04:05:17.928Z,0
2017-03-06T04:06:17.948Z,0
2017-03-06T04:07:17.994Z,0
2017-03-06T04:08:18.017Z,0
2017-03-06T04:10:18.009Z,0
2017-03-06T04:13:18.080Z,0
2017-03-06T04:14:17.691Z,0
2017-03-06T04:15:18.095Z,0
2017-03-06T04:16:18.120Z,0
2017-03-06T04:17:32.661Z,0
2017-03-06T04:18:18.154Z,0
2017-03-06T04:19:32.717Z,0
2017-03-06T04:20:18.200Z,0
2017-03-06T04:22:18.253Z,0
2017-03-06T04:23:18.249Z,0
2017-03-06T04:24:18.270Z,0
2017-03-06T04:25:18.275Z,0
2017-03-06T04:26:18.301Z,0
2017-03-06T04:27:32.844Z,0
2017-03-06T04:28:18.328Z,0
2017-03-06T04:29:18.359Z,0
2017-03-06T04:30:18.361Z,0
2017-03-06T04:31:18.385Z,0
2017-03-06T04:32:32.934Z,0
2017-03-06T04:33:18.445Z,0
2017-03-06T04:34:32.971Z,0
2017-03-06T04:35:18.450Z,0
2017-03-06T04:36:18.479Z,0
2017-03-06T04:37:18.490Z,0
2017-03-06T04:38:18.502Z,0
2017-03-06T04:39:18.535Z,0
2017-03-06T04:40:18.547Z,0
2017-03-06T04:41:18.562Z,0
2017-03-06T04:42:18.576Z,0
2017-03-06T04:43:33.122Z,0
2017-03-06T04:44:18.618Z,0
2017-03-06T04:45:18.663Z,0
2017-03-06T04:47:18.670Z,0
2017-03-06T04:48:18.690Z,0
2017-03-06T04:49:33.232Z,0
2017-03-06T04:50:18.715Z,0
2017-03-06T04:51:19.010Z,0
2017-03-06T04:52:18.773Z,0
2017-03-06T04:53:18.811Z,0
2017-03-06T04:54:18.789Z,0
2017-03-06T04:55:18.821Z,0
2017-03-06T04:56:18.851Z,0
2017-03-06T04:57:33.361Z,0
2017-03-06T04:58:18.852Z,0
2017-03-06T04:59:33.400Z,0
2017-03-06T05:00:18.901Z,0
2017-03-06T05:01:18.922Z,0
2017-03-06T05:02:18.545Z,0
2017-03-06T05:03:18.965Z,0
2017-03-06T05:04:18.970Z,0
2017-03-06T05:05:18.979Z,4
2017-03-06T05:06:19.007Z,4
2017-03-06T05:07:19.019Z,0
2017-03-06T05:08:19.030Z,4
2017-03-06T05:09:19.063Z,4
2017-03-06T05:11:19.100Z,4
2017-03-06T05:12:19.094Z,4
2017-03-06T05:13:19.112Z,8
2017-03-06T05:14:48.186Z,8
2017-03-06T05:15:19.151Z,8
2017-03-06T05:16:19.176Z,12
2017-03-06T05:17:19.547Z,12
2017-03-06T05:18:19.213Z,16
2017-03-06T05:19:19.232Z,20
2017-03-06T05:21:19.258Z,28
2017-03-06T05:22:19.264Z,32
2017-03-06T05:23:19.284Z,36
2017-03-06T05:24:19.379Z,40
2017-03-06T05:25:19.329Z,52
2017-03-06T05:26:19.344Z,56
2017-03-06T05:27:19.364Z,64
2017-03-06T05:28:19.410Z,72
2017-03-06T05:29:19.488Z,84
2017-03-06T05:30:19.413Z,96
2017-03-06T05:31:19.445Z,104
2017-03-06T05:32:19.439Z,120
2017-03-06T05:33:19.454Z,136
2017-03-06T05:34:19.477Z,160
2017-03-06T05:35:19.492Z,184
2017-03-06T05:36:19.121Z,216
2017-03-06T05:37:19.162Z,244
2017-03-06T05:38:19.166Z,264
2017-03-06T05:39:19.582Z,292
2017-03-06T05:40:34.106Z,344
2017-03-06T05:42:19.621Z,416
2017-03-06T05:43:19.630Z,452
2017-03-06T05:44:19.269Z,496
2017-03-06T05:45:19.664Z,540
2017-03-06T05:46:34.214Z,592
2017-03-06T05:47:19.695Z,628
2017-03-06T05:48:34.267Z,692
2017-03-06T05:49:34.283Z,748
2017-03-06T05:50:19.766Z,792
2017-03-06T05:51:34.295Z,868
2017-03-06T05:52:34.315Z,936
2017-03-06T05:53:19.808Z,980
2017-03-06T05:54:19.815Z,1040
2017-03-06T05:55:19.845Z,1092
2017-03-06T05:57:19.875Z,1204
2017-03-06T05:58:19.904Z,1272
2017-03-06T05:59:19.904Z,1336
2017-03-06T06:00:19.919Z,1396
2017-03-06T06:01:19.189Z,1448
2017-03-06T06:02:34.499Z,1512
2017-03-06T06:03:19.607Z,1548
2017-03-06T06:04:19.608Z,1600
2017-03-06T06:05:19.617Z,1652
2017-03-06T06:06:34.561Z,1724
2017-03-06T06:08:34.586Z,1844
2017-03-06T06:09:19.695Z,1892
2017-03-06T06:10:19.734Z,1944
2017-03-06T06:11:19.743Z,1996
2017-03-06T06:12:19.772Z,2040
2017-03-06T06:13:34.942Z,2088
2017-03-06T06:14:19.782Z,2120
2017-03-06T06:15:19.803Z,2156
2017-03-06T06:16:20.213Z,2188
2017-03-06T06:17:20.226Z,2216
2017-03-06T06:18:34.782Z,2244
2017-03-06T06:19:20.256Z,2252
2017-03-06T06:20:34.805Z,2260
2017-03-06T06:21:20.284Z,2260
2017-03-06T06:22:20.304Z,2260
2017-03-06T06:23:20.318Z,2256
2017-03-06T06:24:34.877Z,2256
2017-03-06T06:25:20.363Z,2260
2017-03-06T06:27:20.388Z,2272
2017-03-06T06:28:20.022Z,2276
2017-03-06T06:29:34.953Z,2284
2017-03-06T06:30:34.971Z,2288
2017-03-06T06:32:20.496Z,2272
2017-03-06T06:33:20.515Z,2256
2017-03-06T06:34:34.656Z,2220
2017-03-06T06:35:20.532Z,2188
2017-03-06T06:36:20.196Z,2148
2017-03-06T06:37:20.199Z,2116
2017-03-06T06:38:20.602Z,2096
2017-03-06T06:39:20.215Z,2088
2017-03-06T06:40:20.250Z,2096
2017-03-06T06:41:35.185Z,2124
2017-03-06T06:42:20.652Z,2148
2017-03-06T06:43:20.691Z,2200
2017-03-06T06:44:20.341Z,2264
2017-03-06T06:45:20.711Z,2348
2017-03-06T06:46:35.252Z,2472
2017-03-06T06:47:20.744Z,2560
2017-03-06T06:48:20.765Z,2692
2017-03-06T06:49:49.835Z,2896
2017-03-06T06:50:21.056Z,2972
2017-03-06T06:51:20.829Z,3120
2017-03-06T06:52:20.829Z,3260
2017-03-06T06:53:20.848Z,3392
2017-03-06T06:54:20.878Z,3540
2017-03-06T06:55:35.415Z,3736
2017-03-06T06:56:20.920Z,3872
2017-03-06T06:57:20.922Z,4052
2017-03-06T06:59:20.587Z,4284
2017-03-06T07:00:20.984Z,4444
2017-03-06T07:01:20.996Z,4572
2017-03-06T07:02:21.008Z,4728
2017-03-06T07:03:21.033Z,4780
2017-03-06T07:04:21.051Z,4716
2017-03-06T07:05:21.066Z,5064
2017-03-06T07:06:21.083Z,5188
2017-03-06T07:07:21.108Z,5732
2017-03-06T07:08:21.121Z,5728
2017-03-06T07:09:21.156Z,6044
2017-03-06T07:10:35.684Z,5924
2017-03-06T07:12:21.208Z,6296
2017-03-06T07:13:35.743Z,6268
2017-03-06T07:14:21.243Z,6060
2017-03-06T07:15:21.276Z,5896
2017-03-06T07:16:21.265Z,5604
2017-03-06T07:17:21.295Z,5280
2017-03-06T07:18:21.329Z,5028
2017-03-06T07:19:21.323Z,4908
2017-03-06T07:20:21.366Z,4820
2017-03-06T07:21:35.894Z,4752
2017-03-06T07:23:21.404Z,4756
2017-03-06T07:24:21.416Z,4776
2017-03-06T07:25:21.460Z,4816
2017-03-06T07:26:35.983Z,4892
2017-03-06T07:27:21.484Z,4960
2017-03-06T07:28:21.499Z,5048
2017-03-06T07:29:21.537Z,5144
2017-03-06T07:30:21.550Z,5228
2017-03-06T07:31:21.549Z,5256
2017-03-06T07:32:21.177Z,5276
2017-03-06T07:33:21.603Z,5292
2017-03-06T07:34:21.607Z,5300
2017-03-06T07:35:21.624Z,5308
2017-03-06T07:36:21.643Z,5332
2017-03-06T07:37:36.190Z,5396
2017-03-06T07:38:21.681Z,5444
2017-03-06T07:39:21.700Z,5484
2017-03-06T07:40:21.718Z,5488
2017-03-06T07:41:21.754Z,5488
2017-03-06T07:42:21.767Z,5484
2017-03-06T07:43:36.302Z,5500
2017-03-06T07:44:21.793Z,5540
2017-03-06T07:45:21.811Z,5628
2017-03-06T07:46:21.853Z,5740
2017-03-06T07:47:21.861Z,5876
2017-03-06T07:48:21.881Z,6000
2017-03-06T07:49:21.899Z,6100
2017-03-06T07:50:21.907Z,6148
2017-03-06T07:51:21.972Z,6188
2017-03-06T07:52:21.954Z,6216
2017-03-06T07:53:51.023Z,6260
2017-03-06T07:54:21.987Z,6284
2017-03-06T07:55:22.008Z,6348
2017-03-06T07:56:22.020Z,6436
2017-03-06T07:57:22.041Z,6520
2017-03-06T07:58:22.074Z,6584
2017-03-06T07:59:36.613Z,6672
2017-03-06T08:00:22.132Z,6716
2017-03-06T08:01:22.117Z,6760
2017-03-06T08:02:22.138Z,6792
2017-03-06T08:03:36.857Z,6816
2017-03-06T08:05:21.814Z,6836
2017-03-06T08:06:21.833Z,6856
2017-03-06T08:07:21.848Z,6900
2017-03-06T08:08:21.885Z,6980
2017-03-06T08:09:36.808Z,7124
2017-03-06T08:10:22.326Z,7236
2017-03-06T08:11:36.844Z,7420
2017-03-06T08:12:22.327Z,7536
2017-03-06T08:13:22.352Z,7680
2017-03-06T08:14:36.902Z,7856
2017-03-06T08:16:22.414Z,8196
2017-03-06T08:17:36.571Z,8604
2017-03-06T08:18:22.448Z,8912
2017-03-06T08:19:22.480Z,9400
2017-03-06T08:20:37.016Z,10104
2017-03-06T08:21:22.136Z,10088
2017-03-06T08:22:22.145Z,10352
2017-03-06T08:23:22.550Z,11132
2017-03-06T08:24:37.120Z,12588
2017-03-06T08:25:22.604Z,13972
2017-03-06T08:26:22.612Z,15584
2017-03-06T08:27:22.632Z,16000
2017-03-06T08:28:22.676Z,16416
2017-03-06T08:29:37.198Z,16672
2017-03-06T08:30:22.692Z,16640
2017-03-06T08:31:37.243Z,16480
2017-03-06T08:32:22.760Z,16320
2017-03-06T08:33:22.760Z,16192
2017-03-06T08:34:37.302Z,15744
2017-03-06T08:35:22.404Z,15228
2017-03-06T08:36:22.543Z,14872
2017-03-06T08:37:22.841Z,14344
2017-03-06T08:38:22.855Z,13972
2017-03-06T08:39:22.873Z,13668
2017-03-06T08:40:37.452Z,13508
2017-03-06T08:41:22.949Z,13220
2017-03-06T08:42:23.041Z,12920
2017-03-06T08:43:22.958Z,12684
2017-03-06T08:44:22.981Z,12404
2017-03-06T08:45:22.999Z,12064
2017-03-06T08:46:23.026Z,11796
2017-03-06T08:47:23.058Z,11668
2017-03-06T08:48:37.599Z,11688
2017-03-06T08:49:23.092Z,11752
2017-03-06T08:50:23.114Z,11952
2017-03-06T08:51:37.659Z,12416
2017-03-06T08:52:23.154Z,12764
2017-03-06T08:53:23.198Z,12992
2017-03-06T08:54:23.208Z,13100
2017-03-06T08:55:23.229Z,13388
2017-03-06T08:56:37.771Z,13828
2017-03-06T08:58:23.281Z,14764
2017-03-06T08:59:23.308Z,15184
2017-03-06T09:00:23.344Z,16608
2017-03-06T09:01:37.891Z,16084
2017-03-06T09:02:37.897Z,15848
2017-03-06T09:04:23.444Z,15876
2017-03-06T09:05:23.439Z,15160
2017-03-06T09:06:23.073Z,14756
2017-03-06T09:07:23.473Z,14680
2017-03-06T09:08:23.542Z,14464
2017-03-06T09:09:23.536Z,17664
2017-03-06T09:10:23.563Z,20160
2017-03-06T09:11:23.621Z,19136
2017-03-06T09:12:38.123Z,17344
2017-03-06T09:13:23.616Z,17984
2017-03-06T09:14:23.652Z,14176
2017-03-06T09:15:23.685Z,13368
2017-03-06T09:16:24.028Z,14736
2017-03-06T09:17:23.729Z,14156
2017-03-06T09:18:23.723Z,14528
2017-03-06T09:19:23.751Z,15744
2017-03-06T09:20:23.399Z,16640
2017-03-06T09:21:23.041Z,16544
2017-03-06T09:22:23.440Z,13100
2017-03-06T09:23:24.106Z,12180
2017-03-06T09:24:23.500Z,11592
2017-03-06T09:25:23.508Z,11356
2017-03-06T09:26:23.979Z,10996
2017-03-06T09:27:23.942Z,10852
2017-03-06T09:28:53.015Z,10784
2017-03-06T09:29:23.598Z,10744
2017-03-06T09:30:38.540Z,10560
2017-03-06T09:31:24.146Z,10452
2017-03-06T09:32:38.938Z,10352
2017-03-06T09:33:23.702Z,10384
2017-03-06T09:34:24.096Z,10544
2017-03-06T09:35:38.654Z,10520
2017-03-06T09:36:24.154Z,10780
2017-03-06T09:37:24.174Z,10240
2017-03-06T09:38:24.200Z,10192
2017-03-06T09:39:23.825Z,10228
2017-03-06T09:40:23.865Z,10120
2017-03-06T09:42:24.288Z,9776
2017-03-06T09:44:38.860Z,8788
2017-03-06T09:45:24.355Z,8496
2017-03-06T09:46:23.998Z,8152
2017-03-06T09:47:24.016Z,7868
2017-03-06T09:48:24.426Z,7620
2017-03-06T09:49:24.457Z,7408
2017-03-06T09:50:24.470Z,7180
2017-03-06T09:52:24.537Z,6776
2017-03-06T09:53:24.541Z,6620
2017-03-06T09:54:24.613Z,6476
2017-03-06T09:55:24.204Z,6368
2017-03-06T09:56:24.615Z,6268
2017-03-06T09:57:24.630Z,6180
2017-03-06T09:58:24.651Z,6064
2017-03-06T09:59:38.822Z,5908
2017-03-06T10:00:24.699Z,5800
2017-03-06T10:01:24.841Z,5632
2017-03-06T10:02:24.746Z,5460
2017-03-06T10:03:24.969Z,5284
2017-03-06T10:04:24.411Z,5128
2017-03-06T10:05:24.827Z,4976
2017-03-06T10:06:24.868Z,4840
2017-03-06T10:07:24.857Z,4720
2017-03-06T10:08:24.504Z,4632
2017-03-06T10:09:24.917Z,4560
2017-03-06T10:10:24.958Z,4528
2017-03-06T10:11:24.974Z,4536
2017-03-06T10:12:24.977Z,4588
2017-03-06T10:13:24.997Z,4652
2017-03-06T10:14:25.051Z,4724
2017-03-06T10:15:25.051Z,4764
2017-03-06T10:16:25.069Z,4756
2017-03-06T10:17:24.710Z,4748
2017-03-06T10:18:39.647Z,4724
2017-03-06T10:19:25.131Z,4740
2017-03-06T10:20:25.168Z,4784
2017-03-06T10:21:25.192Z,4816
2017-03-06T10:22:24.811Z,4844
2017-03-06T10:23:24.843Z,4924
2017-03-06T10:24:25.247Z,5056
2017-03-06T10:25:25.278Z,5232
2017-03-06T10:26:39.835Z,5428
2017-03-06T10:27:39.839Z,5572
2017-03-06T10:28:25.368Z,5648
2017-03-06T10:29:25.361Z,5736
2017-03-06T10:30:24.993Z,5816
2017-03-06T10:31:39.555Z,5928
2017-03-06T10:32:25.427Z,5988
2017-03-06T10:33:25.447Z,6080
2017-03-06T10:34:25.485Z,6144
2017-03-06T10:35:25.506Z,6196
2017-03-06T10:36:25.517Z,6232
2017-03-06T10:37:25.537Z,6268
2017-03-06T10:38:25.559Z,6276
2017-03-06T10:39:25.582Z,6284
2017-03-06T10:40:25.235Z,6284
2017-03-06T10:41:25.634Z,6268
2017-03-06T10:42:39.953Z,6232
2017-03-06T10:43:40.222Z,6196
2017-03-06T10:44:40.251Z,6160
2017-03-06T10:45:25.715Z,6136
2017-03-06T10:46:25.747Z,6112
2017-03-06T10:47:40.292Z,6104
2017-03-06T10:48:25.785Z,6120
2017-03-06T10:49:25.807Z,6160
2017-03-06T10:50:25.853Z,6200
2017-03-06T10:51:25.852Z,6240
2017-03-06T10:52:25.874Z,6260
2017-03-06T10:53:25.901Z,6272
2017-03-06T10:54:40.449Z,6280
2017-03-06T10:55:40.483Z,6280
2017-03-06T10:56:25.962Z,6276
2017-03-06T10:58:26.008Z,6264
2017-03-06T11:01:26.074Z,6336
2017-03-06T11:02:26.100Z,6380
2017-03-06T11:03:40.655Z,6440
2017-03-06T11:04:26.162Z,6472
2017-03-06T11:05:26.164Z,6524
2017-03-06T11:06:26.189Z,6572
2017-03-06T11:08:26.256Z,6688
2017-03-06T11:09:40.783Z,6748
2017-03-06T11:10:25.898Z,6760
2017-03-06T11:11:26.311Z,6768
2017-03-06T11:12:25.942Z,6772
2017-03-06T11:13:25.993Z,6776
2017-03-06T11:14:26.374Z,6768
2017-03-06T11:15:26.399Z,6752
2017-03-06T11:16:26.429Z,6720
2017-03-06T11:18:40.997Z,6680
2017-03-06T11:19:41.008Z,6660
2017-03-06T11:20:41.039Z,6640
2017-03-06T11:21:26.523Z,6628
2017-03-06T11:22:26.542Z,6596
2017-03-06T11:23:26.571Z,6564
2017-03-06T11:24:41.121Z,6516
2017-03-06T11:25:26.611Z,6496
2017-03-06T11:26:26.246Z,6468
2017-03-06T11:27:26.272Z,6440
2017-03-06T11:28:25.918Z,6416
2017-03-06T11:29:41.234Z,6388
2017-03-06T11:30:26.737Z,6376
2017-03-06T11:31:26.780Z,6352
2017-03-06T11:32:26.777Z,6308
2017-03-06T11:33:26.407Z,6268
2017-03-06T11:34:41.349Z,6228
2017-03-06T11:35:26.872Z,6212
2017-03-06T11:36:26.897Z,6212
2017-03-06T11:37:26.884Z,6220
2017-03-06T11:38:26.518Z,6220
2017-03-06T11:39:41.460Z,6216
2017-03-06T11:40:26.947Z,6208
2017-03-06T11:42:26.622Z,6188
2017-03-06T11:44:27.055Z,6168
2017-03-06T11:45:27.087Z,6144
2017-03-06T11:46:41.617Z,6088
2017-03-06T11:47:41.641Z,6024
2017-03-06T11:48:27.143Z,5968
2017-03-06T11:49:26.772Z,5916
2017-03-06T11:50:41.336Z,5880
2017-03-06T11:51:27.199Z,5852
2017-03-06T11:52:27.231Z,5816
2017-03-06T11:53:27.256Z,5768
2017-03-06T11:54:27.267Z,5732
2017-03-06T11:55:41.439Z,5684
2017-03-06T11:56:26.946Z,5648
2017-03-06T11:57:27.354Z,5580
2017-03-06T11:58:27.367Z,5488
2017-03-06T11:59:27.391Z,5400
2017-03-06T12:00:27.411Z,5316
2017-03-06T12:01:27.428Z,5244
2017-03-06T12:02:27.462Z,5204
2017-03-06T12:03:27.471Z,5188
2017-03-06T12:04:27.494Z,5168
2017-03-06T12:05:27.520Z,5128
2017-03-06T12:06:42.077Z,5036
2017-03-06T12:07:27.580Z,4960
2017-03-06T12:08:27.617Z,4836
2017-03-06T12:09:27.625Z,4708
2017-03-06T12:10:27.655Z,4572
2017-03-06T12:11:27.661Z,4432
2017-03-06T12:12:27.692Z,4324
2017-03-06T12:13:27.307Z,4236
2017-03-06T12:14:27.336Z,4140
2017-03-06T12:15:27.771Z,4004
2017-03-06T12:16:27.787Z,3852
2017-03-06T12:17:27.788Z,3668
2017-03-06T12:18:27.460Z,3472
2017-03-06T12:20:27.896Z,3140
2017-03-06T12:21:27.491Z,3012
2017-03-06T12:22:56.957Z,2852
2017-03-06T12:24:27.956Z,2840
2017-03-06T12:25:27.964Z,2928
2017-03-06T12:26:28.000Z,3076
2017-03-06T12:27:42.572Z,3392
2017-03-06T12:29:42.587Z,4104
2017-03-06T12:30:28.074Z,4372
2017-03-06T12:32:42.667Z,4948
2017-03-06T12:33:27.764Z,5064
2017-03-06T12:34:28.160Z,5180
2017-03-06T12:35:28.195Z,5292
2017-03-06T12:36:27.859Z,5368
2017-03-06T12:37:28.235Z,5388
2017-03-06T12:38:42.404Z,5320
2017-03-06T12:39:28.277Z,5280
2017-03-06T12:40:28.326Z,5256
2017-03-06T12:41:28.333Z,5264
2017-03-06T12:42:28.345Z,5240
2017-03-06T12:43:42.915Z,5100
2017-03-06T12:44:28.384Z,4992
2017-03-06T12:45:28.416Z,4832
2017-03-06T12:46:28.429Z,4684
2017-03-06T12:47:28.450Z,4588
2017-03-06T12:48:28.478Z,4532
2017-03-06T12:49:28.117Z,4532
2017-03-06T12:50:43.047Z,4588
2017-03-06T12:51:28.565Z,4656
2017-03-06T12:52:28.588Z,4784
2017-03-06T12:53:28.585Z,4980
2017-03-06T12:54:43.162Z,5268
2017-03-06T12:55:28.327Z,5452
2017-03-06T12:56:28.653Z,5692
2017-03-06T12:57:28.673Z,5868
2017-03-06T12:58:27.917Z,6012
2017-03-06T12:59:28.374Z,6156
2017-03-06T13:00:28.743Z,6272
2017-03-06T13:01:28.764Z,6380
2017-03-06T13:02:28.393Z,6472
2017-03-06T13:03:28.850Z,6600
2017-03-06T13:04:43.386Z,6692
2017-03-06T13:05:28.859Z,6716
2017-03-06T13:06:28.515Z,6752
2017-03-06T13:07:28.903Z,6724
2017-03-06T13:08:28.933Z,6644
2017-03-06T13:09:43.470Z,6452
2017-03-06T13:10:43.521Z,6312
2017-03-06T13:11:43.521Z,6220
2017-03-06T13:12:29.009Z,6136
2017-03-06T13:13:29.104Z,6032
2017-03-06T13:14:29.085Z,5952
2017-03-06T13:15:43.601Z,5872
2017-03-06T13:16:29.093Z,5816
2017-03-06T13:17:28.755Z,5752
2017-03-06T13:18:43.704Z,5716
2017-03-06T13:19:28.791Z,5744
2017-03-06T13:20:29.200Z,5776
2017-03-06T13:21:29.207Z,5812
2017-03-06T13:22:43.370Z,5860
2017-03-06T13:23:29.249Z,5848
2017-03-06T13:24:29.314Z,5864
2017-03-06T13:25:29.393Z,5888
2017-03-06T13:26:29.327Z,5932
2017-03-06T13:27:29.377Z,5992
2017-03-06T13:28:29.361Z,6044
2017-03-06T13:29:28.996Z,6068
2017-03-06T13:30:29.412Z,6060
2017-03-06T13:31:29.050Z,6004
2017-03-06T13:32:29.467Z,5948
2017-03-06T13:33:43.629Z,5868
2017-03-06T13:34:29.496Z,5820
2017-03-06T13:35:29.520Z,5760
2017-03-06T13:36:29.543Z,5692
2017-03-06T13:37:29.578Z,5616
2017-03-06T13:38:44.126Z,5536
2017-03-06T13:39:29.220Z,5496
2017-03-06T13:40:29.631Z,5448
2017-03-06T13:42:29.679Z,5392
2017-03-06T13:43:29.396Z,5376
2017-03-06T13:44:29.737Z,5348
2017-03-06T13:45:44.281Z,5276
2017-03-06T13:46:29.763Z,5224
2017-03-06T13:47:29.400Z,5140
2017-03-06T13:48:29.810Z,5056
2017-03-06T13:49:29.845Z,4964
2017-03-06T13:50:29.884Z,4872
2017-03-06T13:52:29.897Z,4708
2017-03-06T13:53:29.587Z,4624
2017-03-06T13:54:29.952Z,4536
2017-03-06T13:55:29.575Z,4460
2017-03-06T13:56:44.546Z,4360
2017-03-06T13:57:44.539Z,4276
2017-03-06T13:58:30.043Z,4180
2017-03-06T13:59:30.098Z,4032
2017-03-06T14:00:30.091Z,3896
2017-03-06T14:01:30.098Z,3780
2017-03-06T14:02:30.124Z,3668
2017-03-06T14:03:44.671Z,3532
2017-03-06T14:04:30.171Z,3448
2017-03-06T14:05:30.188Z,3348
2017-03-06T14:06:30.209Z,3272
2017-03-06T14:07:44.773Z,3180
2017-03-06T14:09:44.806Z,3048
2017-03-06T14:10:44.452Z,2956
2017-03-06T14:11:30.330Z,2868
2017-03-06T14:12:30.346Z,2736
2017-03-06T14:13:44.896Z,2572
2017-03-06T14:15:30.432Z,2340
2017-03-06T14:16:30.430Z,2200
2017-03-06T14:17:30.452Z,2064
2017-03-06T14:18:30.088Z,1940
2017-03-06T14:19:30.118Z,1816
2017-03-06T14:20:30.136Z,1692
2017-03-06T14:22:30.581Z,1532
2017-03-06T14:23:45.116Z,1460
2017-03-06T14:24:30.616Z,1420
2017-03-06T14:25:30.262Z,1356
2017-03-06T14:26:30.652Z,1308
2017-03-06T14:27:30.673Z,1308
2017-03-06T14:28:30.695Z,1340
2017-03-06T14:29:45.269Z,1464
2017-03-06T14:30:30.742Z,1560
2017-03-06T14:31:30.771Z,1680
2017-03-06T14:32:30.794Z,1760
2017-03-06T14:33:30.816Z,1848
2017-03-06T14:34:30.850Z,1948
2017-03-06T14:35:30.847Z,2044
2017-03-06T14:36:30.869Z,2128
2017-03-06T14:37:30.524Z,2204